Saint Charles, Michigan
Current Conditions -  °F | °C
As of 7:53 PM on Saturday 25 Oct 2014 (Local Time) from KMBS Reporting Station
Clear Clear  
Wind Chill: 13°   Ceiling: Unl
Heat Index: 13°   Visibility: 10mi
Dew Point: -1°   Wind: 10mph
Humidity: 39%   Direction: 270°W
Pressure: 29.77"   Gusts: NA
Location:  43.3°N, 84.14°W
Report Text: KMBS 252353Z 27009KT 10SM CLR 13/M01 A2977 RMK AO2 SLP082 T01331006 10206 20133 51019
Loading
Personal Weather Stations






























Interactive Weather Map
Tropical Storm Tracking
New forecast layout! Learn more

10-Day Weather Forecast

Advertisements
Track Severe Weather on mobile